createdAt,value
2018-12-08T17:01:30.162Z,8.53
2018-12-08T17:02:30.319Z,8.51
2018-12-08T17:03:30.103Z,8.47
2018-12-08T17:04:30.890Z,8.51
2018-12-08T17:05:30.013Z,8.44
2018-12-08T17:06:31.855Z,8.50
2018-12-08T17:07:30.502Z,8.47
2018-12-08T17:08:30.935Z,8.42
2018-12-08T17:09:29.978Z,8.50
2018-12-08T17:10:31.868Z,8.50
2018-12-08T17:11:30.947Z,8.57
2018-12-08T17:12:32.458Z,8.60
2018-12-08T17:13:29.987Z,8.55
2018-12-08T17:14:29.890Z,8.62
2018-12-08T17:15:29.874Z,8.50
2018-12-08T17:16:29.866Z,8.58
2018-12-08T17:17:29.894Z,8.60
2018-12-08T17:18:29.890Z,8.48
2018-12-08T17:19:30.163Z,8.47
2018-12-08T17:20:30.229Z,8.55
2018-12-08T17:21:29.810Z,8.50
2018-12-08T17:22:29.813Z,8.58
2018-12-08T17:23:29.811Z,8.50
2018-12-08T17:24:29.905Z,8.63
2018-12-08T17:26:39.054Z,8.53
2018-12-08T17:27:39.800Z,8.54
2018-12-08T17:28:38.958Z,8.58
2018-12-08T17:29:38.972Z,8.55
2018-12-08T17:30:38.983Z,8.57
2018-12-08T17:31:38.925Z,8.44
2018-12-08T17:32:39.079Z,8.63
2018-12-08T17:33:38.984Z,8.65
2018-12-08T17:34:39.732Z,8.48
2018-12-08T17:35:38.916Z,8.65
2018-12-08T17:36:38.947Z,8.60
2018-12-08T17:37:39.042Z,8.50
2018-12-08T17:38:39.476Z,8.53
2018-12-08T17:39:38.879Z,8.54
2018-12-08T17:40:38.846Z,8.57
2018-12-08T17:41:38.830Z,8.55
2018-12-08T17:42:39.124Z,8.60
2018-12-08T17:43:39.025Z,8.60
2018-12-08T17:44:38.832Z,8.62
2018-12-08T17:45:38.865Z,8.50
2018-12-08T17:46:38.797Z,8.54
2018-12-08T17:47:38.756Z,8.48
2018-12-08T17:48:38.769Z,8.47
2018-12-08T17:49:38.783Z,8.57
2018-12-08T17:50:39.282Z,8.45
2018-12-08T17:51:39.746Z,8.48
2018-12-08T17:52:38.705Z,8.42
2018-12-08T17:53:38.788Z,8.48
2018-12-08T17:54:38.750Z,8.53
2018-12-08T17:55:38.672Z,8.42
2018-12-08T17:56:39.459Z,8.47
2018-12-08T17:57:38.693Z,8.53
2018-12-08T17:58:38.654Z,8.44
2018-12-08T17:59:38.631Z,8.48
2018-12-08T18:00:38.695Z,8.48
2018-12-08T18:01:38.662Z,8.50
2018-12-08T18:02:39.418Z,8.50
2018-12-08T18:03:38.630Z,8.48
2018-12-08T18:04:38.574Z,8.50
2018-12-08T18:05:39.704Z,8.60
2018-12-08T18:06:38.579Z,8.60
2018-12-08T18:07:38.585Z,8.55
2018-12-08T18:08:38.754Z,8.58
2018-12-08T18:09:39.754Z,8.60
2018-12-08T18:10:38.602Z,8.65
2018-12-08T18:11:38.496Z,8.63
2018-12-08T18:12:38.708Z,8.60
2018-12-08T18:13:38.476Z,8.57
2018-12-08T18:14:39.850Z,8.57
2018-12-08T18:15:38.456Z,8.54
2018-12-08T18:16:38.455Z,8.55
2018-12-08T18:17:38.444Z,8.53
2018-12-08T18:18:38.830Z,8.55
2018-12-08T18:19:38.446Z,8.53
2018-12-08T18:20:38.516Z,8.55
2018-12-08T18:21:39.248Z,8.54
2018-12-08T18:22:39.306Z,8.66
2018-12-08T18:23:38.453Z,8.63
2018-12-08T18:24:38.396Z,8.53
2018-12-08T18:25:38.399Z,8.57
2018-12-08T18:26:38.500Z,8.58
2018-12-08T18:27:38.417Z,8.63
2018-12-08T18:28:38.341Z,8.53
2018-12-08T18:29:38.377Z,8.65
2018-12-08T18:30:38.377Z,8.55
2018-12-08T18:31:38.316Z,8.68
2018-12-08T18:32:39.769Z,8.69
2018-12-08T18:33:38.339Z,8.65
2018-12-08T18:34:39.322Z,8.72
2018-12-08T18:35:38.311Z,8.63
2018-12-08T18:36:38.283Z,8.72
2018-12-08T18:37:38.311Z,8.75
2018-12-08T18:38:38.354Z,8.76
2018-12-08T18:39:38.646Z,8.79
2018-12-08T18:40:38.209Z,8.78
2018-12-08T18:41:38.180Z,8.71
2018-12-08T18:42:38.185Z,8.71
2018-12-08T18:43:38.210Z,8.65
2018-12-08T18:44:38.326Z,8.69
2018-12-08T18:45:38.202Z,8.79
2018-12-08T18:46:39.093Z,8.69
2018-12-08T18:47:38.129Z,8.72
2018-12-08T18:48:38.174Z,8.75
2018-12-08T18:49:38.134Z,8.90
2018-12-08T18:50:38.466Z,8.96
2018-12-08T18:51:38.141Z,9.05
2018-12-08T18:52:38.111Z,9.13
2018-12-08T18:53:38.167Z,9.10
2018-12-08T18:54:38.739Z,8.93
2018-12-08T18:55:38.074Z,9.06
2018-12-08T18:56:38.138Z,8.99
2018-12-08T18:57:38.035Z,9.13
2018-12-08T18:58:38.189Z,9.18
2018-12-08T18:59:39.168Z,9.09
2018-12-08T19:00:38.102Z,9.18
2018-12-08T19:01:37.987Z,9.20
2018-12-08T19:02:38.959Z,9.12
2018-12-08T19:03:38.732Z,9.10
2018-12-08T19:04:37.995Z,9.05
2018-12-08T19:05:38.059Z,9.02
2018-12-08T19:06:38.815Z,9.06
2018-12-08T19:07:37.952Z,9.09
2018-12-08T19:08:39.034Z,9.01
2018-12-08T19:09:37.988Z,9.10
2018-12-08T19:10:38.702Z,9.13
2018-12-08T19:11:37.907Z,9.06
2018-12-08T19:12:38.362Z,9.18
2018-12-08T19:13:44.728Z,9.23
2018-12-08T19:14:38.780Z,9.21
2018-12-08T19:15:38.754Z,9.20
2018-12-08T19:16:37.931Z,9.21
2018-12-08T19:17:37.824Z,9.23
2018-12-08T19:18:38.365Z,9.16
2018-12-08T19:19:37.775Z,9.28
2018-12-08T19:20:38.784Z,9.39
2018-12-08T19:21:38.667Z,9.45
2018-12-08T19:22:37.837Z,9.42
2018-12-08T19:23:43.542Z,9.46
2018-12-08T19:24:38.746Z,9.31
2018-12-08T19:25:37.861Z,9.28
2018-12-08T19:26:38.304Z,9.21
2018-12-08T19:27:37.780Z,9.21
2018-12-08T19:28:37.737Z,9.10
2018-12-08T19:29:37.727Z,9.06
2018-12-08T19:30:38.227Z,8.94
2018-12-08T19:31:37.668Z,8.76
2018-12-08T19:32:37.808Z,8.76
2018-12-08T19:33:37.682Z,8.81
2018-12-08T19:34:37.605Z,8.76
2018-12-08T19:35:37.680Z,8.88
2018-12-08T19:36:37.644Z,8.84
2018-12-08T19:37:38.011Z,8.62
2018-12-08T19:38:37.855Z,8.44
2018-12-08T19:39:37.582Z,8.32
2018-12-08T19:40:37.712Z,8.40
2018-12-08T19:41:37.620Z,8.40
2018-12-08T19:42:39.553Z,8.37
2018-12-08T19:43:37.731Z,8.51
2018-12-08T19:44:39.040Z,8.42
2018-12-08T19:45:37.548Z,8.45
2018-12-08T19:46:37.523Z,8.47
2018-12-08T19:47:37.533Z,8.54
2018-12-08T19:48:37.562Z,8.57
2018-12-08T19:49:37.568Z,8.60
2018-12-08T19:50:37.774Z,8.39
2018-12-08T19:51:37.988Z,8.37
2018-12-08T19:52:37.944Z,8.35
2018-12-08T19:53:37.454Z,8.55
2018-12-08T19:54:37.466Z,8.47
2018-12-08T19:55:37.460Z,8.47
2018-12-08T19:56:37.604Z,8.53
2018-12-08T19:57:37.395Z,8.50
2018-12-08T19:58:37.531Z,8.65
2018-12-08T19:59:37.331Z,8.55
2018-12-08T20:00:37.397Z,8.40
2018-12-08T20:01:37.355Z,8.35
2018-12-08T20:02:38.643Z,8.35
2018-12-08T20:03:37.350Z,8.40
2018-12-08T20:04:37.281Z,8.48
2018-12-08T20:05:37.313Z,8.39
2018-12-08T20:06:37.321Z,8.54
2018-12-08T20:07:37.349Z,8.45
2018-12-08T20:08:37.352Z,8.30
2018-12-08T20:09:37.314Z,8.35
2018-12-08T20:10:37.362Z,8.42
2018-12-08T20:11:37.258Z,8.39
2018-12-08T20:12:37.258Z,8.32
2018-12-08T20:13:37.193Z,8.37
2018-12-08T20:14:37.345Z,8.44
2018-12-08T20:15:37.157Z,8.55
2018-12-08T20:16:37.346Z,8.42
2018-12-08T20:17:37.217Z,8.42
2018-12-08T20:18:37.247Z,8.35
2018-12-08T20:19:37.151Z,8.47
2018-12-08T20:20:37.331Z,8.47
2018-12-08T20:21:37.237Z,8.40
2018-12-08T20:22:37.466Z,8.42
2018-12-08T20:23:37.103Z,8.36
2018-12-08T20:24:37.751Z,8.33
2018-12-08T20:25:37.702Z,8.40
2018-12-08T20:26:38.031Z,8.51
2018-12-08T20:27:37.084Z,8.44
2018-12-08T20:28:37.727Z,8.55
2018-12-08T20:29:37.073Z,8.51
2018-12-08T20:30:37.830Z,8.57
2018-12-08T20:31:37.007Z,8.58
2018-12-08T20:32:37.225Z,8.58
2018-12-08T20:33:36.986Z,8.57
2018-12-08T20:34:37.492Z,8.55
2018-12-08T20:35:37.740Z,8.45
2018-12-08T20:36:36.966Z,8.50
2018-12-08T20:37:37.719Z,8.55
2018-12-08T20:38:37.384Z,8.57
2018-12-08T20:39:37.806Z,8.57
2018-12-08T20:40:36.954Z,8.48
2018-12-08T20:41:36.878Z,8.48
2018-12-08T20:42:36.870Z,8.53
2018-12-08T20:43:36.896Z,8.47
2018-12-08T20:44:37.178Z,8.50
2018-12-08T20:45:36.966Z,8.68
2018-12-08T20:46:38.049Z,8.78
2018-12-08T20:47:37.642Z,8.78
2018-12-08T20:48:36.894Z,8.83
2018-12-08T20:49:37.151Z,8.72
2018-12-08T20:50:37.731Z,8.81
2018-12-08T20:51:36.815Z,8.78
2018-12-08T20:52:37.146Z,8.83
2018-12-08T20:53:36.755Z,8.79
2018-12-08T20:54:36.807Z,8.73
2018-12-08T20:55:38.075Z,8.60
2018-12-08T20:56:36.762Z,8.66
2018-12-08T20:57:37.703Z,8.62
2018-12-08T20:58:36.777Z,8.50
2018-12-08T20:59:36.787Z,8.62
2018-12-08T21:00:36.734Z,8.57
2018-12-08T21:01:36.838Z,8.63
2018-12-08T21:02:36.745Z,8.63
2018-12-08T21:03:36.673Z,8.62
2018-12-08T21:04:36.698Z,8.55
2018-12-08T21:05:37.184Z,8.53
2018-12-08T21:06:36.712Z,8.51
2018-12-08T21:07:36.680Z,8.51
2018-12-08T21:08:36.698Z,8.47
2018-12-08T21:09:36.611Z,8.50
2018-12-08T21:10:36.596Z,8.66
2018-12-08T21:11:36.591Z,8.68
2018-12-08T21:12:37.667Z,8.69
2018-12-08T21:13:36.622Z,8.66
2018-12-08T21:14:36.553Z,8.55
2018-12-08T21:15:36.538Z,8.69
2018-12-08T21:16:36.694Z,8.72
2018-12-08T21:17:36.550Z,8.69
2018-12-08T21:18:36.522Z,8.81
2018-12-08T21:19:36.655Z,8.76
2018-12-08T21:20:36.551Z,8.76
2018-12-08T21:21:36.632Z,8.76
2018-12-08T21:22:36.552Z,8.84
2018-12-08T21:23:36.589Z,8.84
2018-12-08T21:24:36.487Z,8.81
2018-12-08T21:25:36.479Z,8.88
2018-12-08T21:26:36.449Z,8.97
2018-12-08T21:27:36.417Z,8.93
2018-12-08T21:28:36.443Z,8.81
2018-12-08T21:29:36.419Z,8.79
2018-12-08T21:30:36.418Z,8.81
2018-12-08T21:31:36.809Z,8.76
2018-12-08T21:32:36.348Z,8.73
2018-12-08T21:33:36.318Z,8.93
2018-12-08T21:34:36.339Z,8.97
2018-12-08T21:35:36.342Z,8.88
2018-12-08T21:36:36.788Z,8.96
2018-12-08T21:37:36.707Z,8.94
2018-12-08T21:38:36.340Z,8.91
2018-12-08T21:39:36.276Z,8.99
2018-12-08T21:40:36.370Z,8.88
2018-12-08T21:41:36.246Z,8.76
2018-12-08T21:42:36.249Z,8.87
2018-12-08T21:43:36.947Z,8.93
2018-12-08T21:44:36.219Z,8.87
2018-12-08T21:45:36.303Z,8.87
2018-12-08T21:46:36.333Z,8.90
2018-12-08T21:47:36.235Z,8.90
2018-12-08T21:48:36.255Z,8.81
2018-12-08T21:49:36.447Z,8.81
2018-12-08T21:50:36.576Z,8.83
2018-12-08T21:51:36.174Z,8.81
2018-12-08T21:52:36.749Z,8.91
2018-12-08T21:53:36.291Z,8.93
2018-12-08T21:54:36.101Z,8.91
2018-12-08T21:55:36.348Z,8.88
2018-12-08T21:56:36.426Z,8.88
2018-12-08T21:57:36.136Z,8.91
2018-12-08T21:58:36.045Z,8.88
2018-12-08T21:59:36.704Z,8.88
2018-12-08T22:00:36.025Z,8.96
2018-12-08T22:01:36.258Z,8.93
2018-12-08T22:02:36.703Z,8.97
2018-12-08T22:03:36.485Z,8.94
2018-12-08T22:04:35.980Z,8.91
2018-12-08T22:05:35.984Z,8.91
2018-12-08T22:06:35.994Z,8.97
2018-12-08T22:07:37.299Z,8.96
2018-12-08T22:08:35.981Z,9.09
2018-12-08T22:09:35.932Z,9.05
2018-12-08T22:10:36.274Z,9.10
2018-12-08T22:11:35.994Z,9.09
2018-12-08T22:12:35.897Z,9.01
2018-12-08T22:13:36.217Z,9.06
2018-12-08T22:14:35.874Z,8.99
2018-12-08T22:15:35.908Z,8.93
2018-12-08T22:16:35.847Z,9.02
2018-12-08T22:17:36.322Z,9.09
2018-12-08T22:18:35.890Z,9.04
2018-12-08T22:19:35.899Z,9.15
2018-12-08T22:20:35.859Z,9.13
2018-12-08T22:21:35.832Z,9.06
2018-12-08T22:22:35.894Z,9.16
2018-12-08T22:23:35.821Z,9.13
2018-12-08T22:24:36.283Z,9.05
2018-12-08T22:25:36.157Z,9.20
2018-12-08T22:26:35.771Z,9.20
2018-12-08T22:27:35.904Z,9.15
2018-12-08T22:28:36.787Z,9.13
2018-12-08T22:29:35.729Z,9.06
2018-12-08T22:30:35.718Z,9.20
2018-12-08T22:31:36.168Z,9.12
2018-12-08T22:32:35.681Z,9.20
2018-12-08T22:33:35.684Z,9.20
2018-12-08T22:34:35.662Z,9.25
2018-12-08T22:35:35.642Z,9.23
2018-12-08T22:36:35.642Z,9.24
2018-12-08T22:37:35.679Z,9.38
2018-12-08T22:38:36.651Z,9.38
2018-12-08T22:39:35.625Z,9.32
2018-12-08T22:40:35.628Z,9.39
2018-12-08T22:41:35.579Z,9.48
2018-12-08T22:42:35.668Z,9.34
2018-12-08T22:43:35.648Z,9.31
2018-12-08T22:44:35.544Z,9.27
2018-12-08T22:45:35.591Z,9.25
2018-12-08T22:46:35.523Z,9.20
2018-12-08T22:47:35.588Z,9.21
2018-12-08T22:48:35.507Z,9.23
2018-12-08T22:49:35.572Z,9.13
2018-12-08T22:50:35.480Z,9.16
2018-12-08T22:51:35.494Z,9.12
2018-12-08T22:52:35.499Z,9.10
2018-12-08T22:53:35.451Z,9.06
2018-12-08T22:54:35.438Z,9.02
2018-12-08T22:55:35.504Z,8.87
2018-12-08T22:56:35.415Z,8.94
2018-12-08T22:57:35.411Z,8.91
2018-12-08T22:58:35.515Z,8.91
2018-12-08T22:59:35.385Z,8.88
2018-12-08T23:00:35.371Z,8.91
2018-12-08T23:01:35.508Z,8.91
2018-12-08T23:02:35.868Z,8.91
2018-12-08T23:03:35.364Z,8.93
2018-12-08T23:04:35.375Z,8.90
2018-12-08T23:05:35.363Z,8.94
2018-12-08T23:06:35.305Z,8.97
2018-12-08T23:07:35.331Z,8.97
2018-12-08T23:08:35.308Z,9.01
2018-12-08T23:09:35.277Z,9.04
2018-12-08T23:10:35.339Z,9.04
2018-12-08T23:11:35.382Z,9.05
2018-12-08T23:12:35.264Z,9.12
2018-12-08T23:13:35.270Z,9.16
2018-12-08T23:14:35.681Z,9.15
2018-12-08T23:15:35.232Z,9.16
2018-12-08T23:16:35.197Z,9.15
2018-12-08T23:17:35.188Z,9.20
2018-12-08T23:18:35.181Z,9.10
2018-12-08T23:19:35.229Z,9.13
2018-12-08T23:20:35.154Z,9.18
2018-12-08T23:21:35.143Z,9.21
2018-12-08T23:22:35.131Z,9.16
2018-12-08T23:23:35.676Z,9.18
2018-12-08T23:24:35.660Z,9.21
2018-12-08T23:25:35.178Z,9.23
2018-12-08T23:26:35.657Z,9.16
2018-12-08T23:27:35.145Z,9.24
2018-12-08T23:28:35.130Z,9.21
2018-12-08T23:29:35.067Z,9.15
2018-12-08T23:30:35.077Z,9.20
2018-12-08T23:31:35.085Z,9.23
2018-12-08T23:32:35.238Z,9.27
2018-12-08T23:33:36.099Z,9.30
2018-12-08T23:34:37.853Z,9.27
2018-12-08T23:35:35.703Z,9.23
2018-12-08T23:36:34.984Z,9.28
2018-12-08T23:37:35.021Z,9.34
2018-12-08T23:38:34.973Z,9.32
2018-12-08T23:39:38.976Z,9.31
2018-12-08T23:40:34.938Z,9.31
2018-12-08T23:41:34.924Z,9.45
2018-12-08T23:42:35.658Z,9.35
2018-12-08T23:43:34.950Z,9.35
2018-12-08T23:44:34.892Z,9.34
2018-12-08T23:45:35.618Z,9.28
2018-12-08T23:46:34.870Z,9.27
2018-12-08T23:47:34.888Z,9.30
2018-12-08T23:48:34.848Z,9.25
2018-12-08T23:49:34.884Z,9.21
2018-12-08T23:50:34.828Z,9.10
2018-12-08T23:51:34.822Z,8.94
2018-12-08T23:52:34.807Z,8.91
2018-12-08T23:53:35.617Z,8.78
2018-12-08T23:54:34.785Z,8.81
2018-12-08T23:55:34.982Z,8.76
2018-12-08T23:56:34.762Z,8.69
2018-12-08T23:57:34.751Z,8.68
2018-12-08T23:58:35.214Z,8.60
2018-12-08T23:59:34.729Z,8.50
